createdAt,value
2022-11-02T00:01:40.720Z,11.27
2022-11-02T00:06:44.521Z,11.38
2022-11-02T00:11:48.515Z,11.34
2022-11-02T00:16:51.109Z,11.36
2022-11-02T00:21:54.657Z,11.50
2022-11-02T00:26:58.593Z,11.49
2022-11-02T00:32:01.773Z,11.52
2022-11-02T00:37:04.308Z,11.62
2022-11-02T00:42:08.489Z,11.69
2022-11-02T00:47:12.556Z,11.67
2022-11-02T00:52:15.176Z,11.85
2022-11-02T00:57:23.872Z,11.77
2022-11-02T01:02:26.586Z,11.88
2022-11-02T01:07:29.971Z,11.88
2022-11-02T01:12:33.936Z,11.93
2022-11-02T01:17:36.789Z,12.01
2022-11-02T01:22:40.743Z,12.04
2022-11-02T01:27:44.646Z,12.01
2022-11-02T01:32:47.748Z,11.94
2022-11-02T01:37:50.341Z,11.92
2022-11-02T01:42:54.303Z,11.85
2022-11-02T01:47:56.953Z,11.88
2022-11-02T01:53:00.615Z,11.86
2022-11-02T01:58:09.624Z,11.81
2022-11-02T02:03:16.663Z,11.81
2022-11-02T02:08:23.420Z,11.88
2022-11-02T02:13:27.981Z,11.95
2022-11-02T02:18:34.375Z,11.86
2022-11-02T02:23:56.024Z,11.92
2022-11-02T02:29:02.585Z,11.89
2022-11-02T02:34:10.250Z,11.74
2022-11-02T02:39:17.477Z,11.84
2022-11-02T02:44:23.023Z,11.79
2022-11-02T02:49:29.343Z,11.70
2022-11-02T02:54:33.749Z,11.67
2022-11-02T02:59:41.353Z,11.59
2022-11-02T03:04:44.937Z,11.57
2022-11-02T03:09:52.188Z,11.60
2022-11-02T03:15:07.281Z,11.69
2022-11-02T03:20:12.968Z,11.64
2022-11-02T03:25:18.251Z,11.55
2022-11-02T03:30:27.302Z,11.62
2022-11-02T03:35:34.761Z,11.57
2022-11-02T03:40:40.919Z,11.52
2022-11-02T03:45:48.558Z,11.52
2022-11-02T03:50:52.499Z,11.47
2022-11-02T03:56:00.779Z,11.53
2022-11-02T04:01:08.149Z,11.50
2022-11-02T04:06:12.788Z,11.48
2022-11-02T04:11:34.404Z,11.52
2022-11-02T04:16:43.847Z,11.51
2022-11-02T04:22:15.081Z,11.56
2022-11-02T04:27:21.330Z,11.52
2022-11-02T04:32:44.005Z,11.48
2022-11-02T04:38:07.998Z,11.39
2022-11-02T04:43:13.836Z,11.42
2022-11-02T04:48:18.798Z,11.37
2022-11-02T04:53:21.806Z,11.35
2022-11-02T04:58:24.536Z,11.29
2022-11-02T05:03:28.757Z,11.19
2022-11-02T05:08:31.668Z,11.21
2022-11-02T05:13:34.352Z,11.09
2022-11-02T05:18:38.944Z,11.08
2022-11-02T05:23:41.644Z,11.04
2022-11-02T05:28:45.171Z,11.01
2022-11-02T05:33:49.233Z,10.96
2022-11-02T05:38:56.297Z,10.93
2022-11-02T05:44:00.090Z,10.84
2022-11-02T05:49:06.162Z,10.90
2022-11-02T05:54:08.754Z,11.02
2022-11-02T05:59:11.329Z,11.00
2022-11-02T06:04:15.333Z,11.11
2022-11-02T06:09:17.980Z,11.03
2022-11-02T06:14:20.581Z,11.11
2022-11-02T06:19:24.533Z,11.11
2022-11-02T06:24:27.132Z,11.16
2022-11-02T06:29:29.777Z,11.10
2022-11-02T06:34:33.703Z,11.14
2022-11-02T06:44:39.972Z,11.06
2022-11-02T06:49:43.945Z,11.04
2022-11-02T06:54:46.516Z,11.13
2022-11-02T06:59:53.804Z,11.29
2022-11-02T07:04:58.305Z,11.42
2022-11-02T07:10:00.992Z,11.54
2022-11-02T07:15:03.605Z,11.61
2022-11-02T07:20:10.492Z,11.64
2022-11-02T07:25:13.145Z,11.71
2022-11-02T07:30:16.024Z,11.69
2022-11-02T07:35:20.272Z,11.75
2022-11-02T07:40:22.854Z,11.72
2022-11-02T07:45:25.992Z,11.74
2022-11-02T07:50:30.045Z,11.99
2022-11-02T07:55:33.305Z,12.01
2022-11-02T08:00:38.374Z,12.15
2022-11-02T08:05:43.442Z,12.06
2022-11-02T08:10:47.066Z,12.17
2022-11-02T08:15:50.595Z,12.28
2022-11-02T08:20:56.575Z,12.20
2022-11-02T08:26:00.350Z,12.24
2022-11-02T08:31:03.015Z,12.30
2022-11-02T08:36:07.839Z,12.34
2022-11-02T08:41:10.584Z,12.22
2022-11-02T08:46:15.161Z,12.47
2022-11-02T08:51:20.039Z,12.35
2022-11-02T08:56:22.629Z,12.52
2022-11-02T09:01:25.410Z,12.56
2022-11-02T09:06:29.462Z,12.73
2022-11-02T09:11:32.176Z,12.92
2022-11-02T09:16:40.218Z,12.99
2022-11-02T09:21:45.413Z,12.99
2022-11-02T09:26:49.396Z,13.08
2022-11-02T09:31:52.001Z,13.00
2022-11-02T09:36:55.936Z,13.13
2022-11-02T09:42:05.366Z,12.79
2022-11-02T09:47:55.999Z,13.10
2022-11-02T09:52:37.142Z,13.31
2022-11-02T09:57:40.970Z,13.12
2022-11-02T10:02:53.435Z,13.05
2022-11-02T10:08:10.710Z,13.26
2022-11-02T10:13:25.561Z,13.34
2022-11-02T10:18:29.881Z,12.97
2022-11-02T10:23:36.637Z,12.77
2022-11-02T10:28:41.078Z,12.44
2022-11-02T10:33:43.736Z,12.60
2022-11-02T10:38:55.753Z,12.41
2022-11-02T10:44:13.115Z,12.35
2022-11-02T10:49:24.760Z,12.31
2022-11-02T10:54:34.267Z,12.46
2022-11-02T10:59:37.166Z,12.31
2022-11-02T11:04:41.124Z,12.45
2022-11-02T11:09:51.678Z,12.42
2022-11-02T11:20:34.039Z,13.37
2022-11-02T11:25:38.055Z,13.54
2022-11-02T11:30:59.808Z,13.80
2022-11-02T11:36:02.927Z,13.98
2022-11-02T11:41:06.947Z,14.32
2022-11-02T11:46:09.849Z,14.11
2022-11-02T11:51:31.473Z,14.16
2022-11-02T11:56:36.129Z,14.16
2022-11-02T12:01:41.910Z,13.90
2022-11-02T12:06:50.111Z,13.55
2022-11-02T12:12:00.071Z,13.64
2022-11-02T12:17:15.381Z,13.69
2022-11-02T12:22:22.443Z,13.66
2022-11-02T12:27:34.922Z,13.98
2022-11-02T12:32:47.610Z,13.93
2022-11-02T12:38:01.149Z,14.24
2022-11-02T12:43:16.388Z,13.99
2022-11-02T12:48:24.955Z,14.04
2022-11-02T12:53:42.022Z,14.21
2022-11-02T12:58:45.967Z,14.23
2022-11-02T13:03:52.400Z,14.22
2022-11-02T13:08:56.068Z,14.35
2022-11-02T13:14:00.809Z,14.33
2022-11-02T13:19:04.112Z,14.38
2022-11-02T13:24:12.391Z,14.34
2022-11-02T13:29:20.210Z,14.38
2022-11-02T13:34:32.663Z,14.20
2022-11-02T13:39:38.690Z,14.17
2022-11-02T13:45:24.552Z,13.98
2022-11-02T13:50:27.292Z,13.95
2022-11-02T13:55:42.980Z,14.06
2022-11-02T14:00:49.959Z,13.99
2022-11-02T14:05:56.425Z,13.90
2022-11-02T14:11:26.551Z,13.81
2022-11-02T14:16:44.287Z,13.87
2022-11-02T14:22:06.639Z,13.75
2022-11-02T14:27:30.432Z,13.71
2022-11-02T14:32:44.288Z,13.68
2022-11-02T14:38:04.862Z,13.55
2022-11-02T14:43:22.378Z,13.58
2022-11-02T14:48:28.487Z,13.42
2022-11-02T14:53:33.890Z,13.35
2022-11-02T14:58:42.601Z,13.29
2022-11-02T15:03:48.259Z,13.24
2022-11-02T15:08:53.878Z,13.17
2022-11-02T15:13:56.497Z,13.08
2022-11-02T15:19:33.178Z,13.02
2022-11-02T15:24:37.417Z,12.92
2022-11-02T15:29:44.295Z,12.79
2022-11-02T15:34:49.413Z,12.70
2022-11-02T15:39:54.783Z,12.61
2022-11-02T15:45:20.363Z,12.51
2022-11-02T15:50:40.264Z,12.48
2022-11-02T15:55:53.506Z,12.32
2022-11-02T16:01:06.671Z,12.07
2022-11-02T16:06:10.244Z,11.92
2022-11-02T16:11:17.360Z,12.02
2022-11-02T16:16:20.888Z,11.98
2022-11-02T16:21:23.510Z,11.84
2022-11-02T16:26:29.690Z,11.87
2022-11-02T16:31:32.310Z,11.70
2022-11-02T16:36:37.135Z,11.59
2022-11-02T16:41:41.881Z,11.38
2022-11-02T16:46:49.784Z,11.48
2022-11-02T16:51:53.553Z,11.23
2022-11-02T16:57:00.475Z,11.16
2022-11-02T17:02:04.025Z,11.27
2022-11-02T17:07:13.334Z,11.22
2022-11-02T17:12:17.890Z,11.26
2022-11-02T17:17:39.416Z,11.18
2022-11-02T17:22:50.822Z,11.08
2022-11-02T17:27:55.938Z,10.96
2022-11-02T17:32:58.920Z,10.88
2022-11-02T17:38:02.388Z,10.71
2022-11-02T17:43:06.599Z,10.56
2022-11-02T17:48:10.789Z,10.56
2022-11-02T17:53:14.234Z,10.40
2022-11-02T17:58:18.473Z,10.47
2022-11-02T18:03:25.448Z,10.34
2022-11-02T18:08:31.081Z,10.35
2022-11-02T18:13:35.010Z,10.41
2022-11-02T18:18:37.602Z,10.23
2022-11-02T18:23:40.571Z,10.19
2022-11-02T18:28:44.628Z,10.21
2022-11-02T18:33:47.500Z,10.18
2022-11-02T18:38:50.081Z,10.19
2022-11-02T18:43:57.884Z,10.23
2022-11-02T18:49:03.696Z,10.24
2022-11-02T18:54:07.125Z,10.14
2022-11-02T18:59:11.150Z,10.09
2022-11-02T19:04:17.365Z,10.10
2022-11-02T19:09:23.107Z,10.00
2022-11-02T19:14:28.011Z,9.97
2022-11-02T19:19:30.944Z,9.97
2022-11-02T19:24:33.724Z,9.90
2022-11-02T19:29:37.801Z,9.85
2022-11-02T19:34:40.679Z,9.87
2022-11-02T19:39:43.248Z,9.81
2022-11-02T19:44:47.250Z,9.74
2022-11-02T19:49:49.993Z,9.74
2022-11-02T19:54:52.611Z,9.61
2022-11-02T19:59:56.621Z,9.69
2022-11-02T20:04:59.426Z,9.59
2022-11-02T20:10:03.127Z,9.55
2022-11-02T20:15:10.728Z,9.54
2022-11-02T20:20:13.633Z,9.36
2022-11-02T20:25:16.518Z,9.41
2022-11-02T20:30:22.198Z,9.31
2022-11-02T20:35:25.828Z,9.29
2022-11-02T20:40:29.314Z,9.24
2022-11-02T20:45:33.735Z,9.19
2022-11-02T20:50:36.662Z,9.20
2022-11-02T20:55:39.249Z,9.23
2022-11-02T21:00:43.239Z,9.17
2022-11-02T21:05:46.069Z,9.17
2022-11-02T21:10:55.978Z,9.26
2022-11-02T21:16:04.574Z,9.23
2022-11-02T21:21:08.885Z,9.23
2022-11-02T21:26:12.893Z,9.27
2022-11-02T21:31:19.194Z,9.34
2022-11-02T21:36:21.796Z,9.37
2022-11-02T21:41:26.448Z,9.36
2022-11-02T21:46:30.406Z,9.38
2022-11-02T21:51:34.362Z,9.41
2022-11-02T21:56:37.989Z,9.42
2022-11-02T22:01:49.029Z,9.43
2022-11-02T22:06:52.274Z,9.43
2022-11-02T22:12:08.868Z,9.47
2022-11-02T22:17:35.776Z,9.52
2022-11-02T22:22:36.727Z,9.50
2022-11-02T22:27:39.306Z,9.50
2022-11-02T22:32:43.243Z,9.55
2022-11-02T22:38:03.655Z,9.50
2022-11-02T22:43:06.688Z,9.57
2022-11-02T22:48:10.815Z,9.50
2022-11-02T22:53:13.405Z,9.47
2022-11-02T22:58:15.966Z,9.42
2022-11-02T23:03:19.978Z,9.38
2022-11-02T23:08:22.629Z,9.39
2022-11-02T23:13:25.750Z,9.34
2022-11-02T23:18:52.598Z,9.31
2022-11-02T23:24:12.667Z,9.31
2022-11-02T23:29:32.742Z,9.35
2022-11-02T23:34:36.648Z,9.32
2022-11-02T23:39:51.112Z,9.35
2022-11-02T23:44:53.773Z,9.41
2022-11-02T23:49:57.685Z,9.42
2022-11-02T23:55:17.588Z,9.46
